createdAt,value
2019-03-05T00:01:30.941Z,7.30
2019-03-05T00:04:00.163Z,6.57
2019-03-05T00:06:29.419Z,7.20
2019-03-05T00:08:58.770Z,8.43
2019-03-05T00:11:28.001Z,7.43
2019-03-05T00:13:57.242Z,8.23
2019-03-05T00:16:26.459Z,10.00
2019-03-05T00:18:55.753Z,9.40
2019-03-05T00:21:25.033Z,9.23
2019-03-05T00:23:56.807Z,8.70
2019-03-05T00:26:32.142Z,11.33
2019-03-05T00:29:51.535Z,12.60
2019-03-05T00:32:20.836Z,13.47
2019-03-05T00:35:17.677Z,11.23
2019-03-05T00:38:16.338Z,8.40
2019-03-05T00:41:23.201Z,9.80
2019-03-05T00:44:03.998Z,7.30
2019-03-05T00:46:56.139Z,7.33
2019-03-05T00:49:50.959Z,8.77
2019-03-05T00:52:55.464Z,7.73
2019-03-05T00:56:06.499Z,9.40
2019-03-05T00:58:59.267Z,5.00
2019-03-05T01:01:49.711Z,7.50
2019-03-05T01:04:51.721Z,6.83
2019-03-05T01:07:21.071Z,7.77
2019-03-05T01:09:52.873Z,7.80
2019-03-05T01:12:20.183Z,8.03
2019-03-05T01:14:49.428Z,5.77
2019-03-05T01:17:18.611Z,5.40
2019-03-05T01:19:47.869Z,5.33
2019-03-05T01:22:17.061Z,5.53
2019-03-05T01:24:46.299Z,4.97
2019-03-05T01:27:15.581Z,5.00
2019-03-05T01:29:44.789Z,4.13
2019-03-05T01:32:22.425Z,4.87
2019-03-05T01:34:58.057Z,5.23
2019-03-05T01:37:27.295Z,4.60
2019-03-05T01:40:24.701Z,6.00
2019-03-05T01:42:53.880Z,7.13
2019-03-05T01:45:23.092Z,6.70
2019-03-05T01:47:52.377Z,5.60
2019-03-05T01:50:21.561Z,6.33
2019-03-05T01:52:50.774Z,6.00
2019-03-05T01:55:19.957Z,6.63
2019-03-05T01:57:49.173Z,5.73
2019-03-05T02:00:18.403Z,6.43
2019-03-05T02:02:47.643Z,6.40
2019-03-05T02:05:16.924Z,6.70
2019-03-05T02:07:46.111Z,8.50
2019-03-05T02:10:19.675Z,7.90
2019-03-05T02:12:48.877Z,8.90
2019-03-05T02:15:18.127Z,7.30
2019-03-05T02:17:47.377Z,11.33
2019-03-05T02:20:22.044Z,9.13
2019-03-05T02:23:30.465Z,8.27
2019-03-05T02:26:24.560Z,12.50
2019-03-05T02:29:28.887Z,9.67
2019-03-05T02:32:40.191Z,7.87
2019-03-05T02:35:14.985Z,9.00
2019-03-05T02:38:23.059Z,11.03
2019-03-05T02:41:25.604Z,8.67
2019-03-05T02:44:17.125Z,12.23
2019-03-05T02:47:26.597Z,6.93
2019-03-05T02:50:38.996Z,11.87
2019-03-05T02:54:02.238Z,14.07
2019-03-05T02:57:16.189Z,12.10
2019-03-05T02:59:45.379Z,13.37
2019-03-05T03:02:32.451Z,10.70
2019-03-05T03:05:14.282Z,12.27
2019-03-05T03:07:43.470Z,13.60
2019-03-05T03:10:20.727Z,11.93
2019-03-05T03:12:50.037Z,15.67
2019-03-05T03:15:19.735Z,9.43
2019-03-05T03:17:49.613Z,11.43
2019-03-05T03:20:19.875Z,11.43
2019-03-05T03:22:49.097Z,13.97
2019-03-05T03:25:22.039Z,10.67
2019-03-05T03:27:51.205Z,12.80
2019-03-05T03:30:24.869Z,13.17
2019-03-05T03:32:54.082Z,11.27
2019-03-05T03:35:23.252Z,9.47
2019-03-05T03:37:52.461Z,10.83
2019-03-05T03:40:22.677Z,15.47
2019-03-05T03:42:52.484Z,14.13
2019-03-05T03:45:23.299Z,14.77
2019-03-05T03:47:52.484Z,10.60
2019-03-05T03:50:21.736Z,17.53
2019-03-05T03:52:51.004Z,13.27
2019-03-05T03:55:20.203Z,11.80
2019-03-05T03:57:49.398Z,16.40
2019-03-05T04:00:23.019Z,14.37
2019-03-05T04:02:52.782Z,13.20
2019-03-05T04:05:22.025Z,18.37
2019-03-05T04:07:51.245Z,13.53
2019-03-05T04:10:20.461Z,12.70
2019-03-05T04:12:49.675Z,9.67
2019-03-05T04:15:20.143Z,15.63
2019-03-05T04:17:49.336Z,13.00
2019-03-05T04:20:24.834Z,12.93
2019-03-05T04:22:54.054Z,13.80
2019-03-05T04:25:23.318Z,17.07
2019-03-05T04:27:52.524Z,8.40
2019-03-05T04:30:21.739Z,9.13
2019-03-05T04:32:50.985Z,11.13
2019-03-05T04:35:20.286Z,12.53
2019-03-05T04:37:49.505Z,11.70
2019-03-05T04:40:18.764Z,11.23
2019-03-05T04:42:48.004Z,13.00
2019-03-05T04:45:52.131Z,11.53
2019-03-05T04:48:21.418Z,17.50
2019-03-05T04:51:06.199Z,16.80
2019-03-05T04:53:35.431Z,12.87
2019-03-05T04:56:04.664Z,11.90
2019-03-05T04:58:33.893Z,11.70
2019-03-05T05:01:03.249Z,12.47
2019-03-05T05:03:32.512Z,9.57
2019-03-05T05:06:01.663Z,10.90
2019-03-05T05:08:30.909Z,10.97
2019-03-05T05:11:00.107Z,14.37
2019-03-05T05:13:29.357Z,12.33
2019-03-05T05:15:58.557Z,14.60
2019-03-05T05:18:27.785Z,9.03
2019-03-05T05:20:56.993Z,11.10
2019-03-05T05:23:26.221Z,10.27
2019-03-05T05:25:55.445Z,11.87
2019-03-05T05:28:24.669Z,10.70
2019-03-05T05:30:53.866Z,12.97
2019-03-05T05:33:23.080Z,10.53
2019-03-05T05:35:52.275Z,13.93
2019-03-05T05:38:21.483Z,13.17
2019-03-05T05:40:50.725Z,9.53
2019-03-05T05:43:26.906Z,12.70
2019-03-05T05:45:56.112Z,11.17
2019-03-05T05:48:25.341Z,4.47
2019-03-05T05:50:54.545Z,5.60
2019-03-05T05:53:23.763Z,6.00
2019-03-05T05:55:52.967Z,9.70
2019-03-05T05:58:22.203Z,6.83
2019-03-05T06:00:53.553Z,4.40
2019-03-05T06:03:22.783Z,7.37
2019-03-05T06:05:52.007Z,7.47
2019-03-05T06:08:21.185Z,4.63
2019-03-05T06:10:52.768Z,10.23
2019-03-05T06:13:19.693Z,5.10
2019-03-05T06:15:48.905Z,8.67
2019-03-05T06:18:18.114Z,10.10
2019-03-05T06:20:47.399Z,9.43
2019-03-05T06:23:16.742Z,6.03
2019-03-05T06:25:46.009Z,7.47
2019-03-05T06:28:15.201Z,11.03
2019-03-05T06:30:44.620Z,13.27
2019-03-05T06:33:14.038Z,9.53
2019-03-05T06:35:43.258Z,9.37
2019-03-05T06:38:12.497Z,11.67
2019-03-05T06:40:41.711Z,8.87
2019-03-05T06:43:10.916Z,11.90
2019-03-05T06:45:40.263Z,9.50
2019-03-05T06:48:09.663Z,11.17
2019-03-05T06:50:38.975Z,6.90
2019-03-05T06:53:08.182Z,12.40
2019-03-05T06:55:37.397Z,8.10
2019-03-05T06:58:06.784Z,7.53
2019-03-05T07:00:37.331Z,10.20
2019-03-05T07:03:07.658Z,9.17
2019-03-05T07:06:13.692Z,11.13
2019-03-05T07:08:47.364Z,12.00
2019-03-05T07:11:45.335Z,8.80
2019-03-05T07:14:19.775Z,9.87
2019-03-05T07:17:13.998Z,10.63
2019-03-05T07:20:05.685Z,9.53
2019-03-05T07:22:50.477Z,10.70
2019-03-05T07:25:19.797Z,8.73
2019-03-05T07:27:55.705Z,12.23
2019-03-05T07:30:26.469Z,10.03
2019-03-05T07:32:57.096Z,9.97
2019-03-05T07:35:27.542Z,8.97
2019-03-05T07:37:56.830Z,11.30
2019-03-05T07:40:26.104Z,7.47
2019-03-05T07:42:55.369Z,10.67
2019-03-05T07:45:24.611Z,9.30
2019-03-05T07:47:53.947Z,7.83
2019-03-05T07:50:23.247Z,8.67
2019-03-05T07:52:52.503Z,10.90
2019-03-05T07:55:21.781Z,8.80
2019-03-05T07:57:51.134Z,11.70
2019-03-05T08:00:24.294Z,7.20
2019-03-05T08:02:50.806Z,10.83
2019-03-05T08:05:20.045Z,11.63
2019-03-05T08:07:49.434Z,11.17
2019-03-05T08:10:24.395Z,5.30
2019-03-05T08:13:04.318Z,10.47
2019-03-05T08:16:02.539Z,7.57
2019-03-05T08:18:23.960Z,8.10
2019-03-05T08:20:53.215Z,5.60
2019-03-05T08:23:22.460Z,10.27
2019-03-05T08:25:51.743Z,9.03
2019-03-05T08:28:21.050Z,8.50
2019-03-05T08:30:50.311Z,10.70
2019-03-05T08:33:19.648Z,8.30
2019-03-05T08:35:48.936Z,8.83
2019-03-05T08:38:18.249Z,12.50
2019-03-05T08:40:47.511Z,7.07
2019-03-05T08:43:16.833Z,7.73
2019-03-05T08:45:46.129Z,6.93
2019-03-05T08:48:15.387Z,7.23
2019-03-05T08:50:44.755Z,7.03
2019-03-05T08:53:13.991Z,7.97
2019-03-05T08:55:43.250Z,7.53
2019-03-05T08:58:12.491Z,6.73
2019-03-05T09:00:41.763Z,5.67
2019-03-05T09:03:11.009Z,5.10
2019-03-05T09:05:40.219Z,8.57
2019-03-05T09:08:09.563Z,6.40
2019-03-05T09:10:38.835Z,7.33
2019-03-05T09:13:08.701Z,4.20
2019-03-05T09:15:38.076Z,8.53
2019-03-05T09:18:07.351Z,7.73
2019-03-05T09:20:36.665Z,8.97
2019-03-05T09:23:05.962Z,8.00
2019-03-05T09:25:35.227Z,7.50
2019-03-05T09:28:04.449Z,7.43
2019-03-05T09:30:33.671Z,7.70
2019-03-05T09:33:02.978Z,5.80
2019-03-05T09:35:32.280Z,5.47
2019-03-05T09:38:01.547Z,5.73
2019-03-05T09:40:30.993Z,7.07
2019-03-05T09:43:00.267Z,5.07
2019-03-05T09:45:29.539Z,13.27
2019-03-05T09:47:58.710Z,7.27
2019-03-05T09:50:28.068Z,6.43
2019-03-05T09:52:57.338Z,6.63
2019-03-05T09:55:26.854Z,7.87
2019-03-05T09:58:06.956Z,4.97
2019-03-05T10:00:25.627Z,7.40
2019-03-05T10:02:54.856Z,7.27
2019-03-05T10:05:24.195Z,5.93
2019-03-05T10:07:53.394Z,6.07
2019-03-05T10:10:23.768Z,7.50
2019-03-05T10:12:53.111Z,8.13
2019-03-05T10:15:22.403Z,7.90
2019-03-05T10:17:51.611Z,8.30
2019-03-05T10:20:21.633Z,7.67
2019-03-05T10:22:54.101Z,7.20
2019-03-05T10:25:23.413Z,7.50
2019-03-05T10:27:52.678Z,7.23
2019-03-05T10:30:24.967Z,7.73
2019-03-05T10:32:53.155Z,5.87
2019-03-05T10:35:24.101Z,5.83
2019-03-05T10:37:54.006Z,6.97
2019-03-05T10:40:26.759Z,7.20
2019-03-05T10:42:56.039Z,4.30
2019-03-05T10:45:25.286Z,6.30
2019-03-05T10:47:54.518Z,7.10
2019-03-05T10:50:24.890Z,5.83
2019-03-05T10:52:54.155Z,3.63
2019-03-05T10:55:26.567Z,4.37
2019-03-05T10:57:52.617Z,6.23
2019-03-05T11:00:24.199Z,8.47
2019-03-05T11:02:53.469Z,4.23
2019-03-05T11:05:22.748Z,8.50
2019-03-05T11:07:52.078Z,4.07
2019-03-05T11:10:21.317Z,5.60
2019-03-05T11:12:50.546Z,6.27
2019-03-05T11:15:22.453Z,4.07
2019-03-05T11:17:51.718Z,8.27
2019-03-05T11:20:20.997Z,2.50
2019-03-05T11:22:50.305Z,6.33
2019-03-05T11:25:19.537Z,3.30
2019-03-05T11:27:48.791Z,2.97
2019-03-05T11:30:22.911Z,2.10
2019-03-05T11:32:52.175Z,3.43
2019-03-05T11:35:23.306Z,3.70
2019-03-05T11:37:52.538Z,2.93
2019-03-05T11:40:21.783Z,2.90
2019-03-05T11:42:51.063Z,4.13
2019-03-05T11:45:22.432Z,3.43
2019-03-05T11:47:51.654Z,3.47
2019-03-05T11:50:20.930Z,3.37
2019-03-05T11:52:50.227Z,3.57
2019-03-05T11:55:20.139Z,3.77
2019-03-05T11:57:49.411Z,3.77
2019-03-05T12:00:24.549Z,5.57
2019-03-05T12:02:53.768Z,4.97
2019-03-05T12:05:23.055Z,4.47
2019-03-05T12:07:52.365Z,4.30
2019-03-05T12:10:21.696Z,5.40
2019-03-05T12:12:50.960Z,3.90
2019-03-05T12:15:20.319Z,4.43
2019-03-05T12:17:49.704Z,3.83
2019-03-05T12:20:18.951Z,4.70
2019-03-05T12:22:48.194Z,3.23
2019-03-05T12:25:17.518Z,5.10
2019-03-05T12:27:46.743Z,3.20
2019-03-05T12:30:18.758Z,3.67
2019-03-05T12:32:48.008Z,3.47
2019-03-05T12:35:17.365Z,3.63
2019-03-05T12:37:46.641Z,4.67
2019-03-05T12:40:16.268Z,3.30
2019-03-05T12:42:45.463Z,3.33
2019-03-05T12:45:14.751Z,3.27
2019-03-05T12:47:44.070Z,3.60
2019-03-05T12:50:15.678Z,5.27
2019-03-05T12:52:45.448Z,3.43
2019-03-05T12:55:14.715Z,3.33
2019-03-05T12:57:44.052Z,3.67
2019-03-05T13:00:16.167Z,4.00
2019-03-05T13:02:45.498Z,3.83
2019-03-05T13:05:15.517Z,3.47
2019-03-05T13:07:45.007Z,3.60
2019-03-05T13:10:16.863Z,2.53
2019-03-05T13:12:46.102Z,6.23
2019-03-05T13:15:17.625Z,6.40
2019-03-05T13:17:47.126Z,3.23
2019-03-05T13:20:16.447Z,3.43
2019-03-05T13:22:45.635Z,5.50
2019-03-05T13:25:15.973Z,2.90
2019-03-05T13:27:45.197Z,3.00
2019-03-05T13:30:16.277Z,3.27
2019-03-05T13:32:45.496Z,4.07
2019-03-05T13:35:15.541Z,4.17
2019-03-05T13:37:45.323Z,3.70
2019-03-05T13:40:17.198Z,2.40
2019-03-05T13:42:46.485Z,4.37
2019-03-05T13:45:15.713Z,3.17
2019-03-05T13:47:54.613Z,4.17
2019-03-05T13:50:35.920Z,3.93
2019-03-05T13:54:00.003Z,3.30
2019-03-05T13:57:00.201Z,3.80
2019-03-05T13:59:46.424Z,3.97
2019-03-05T14:02:22.074Z,2.50
2019-03-05T14:05:13.985Z,3.97
2019-03-05T14:08:24.905Z,2.83
2019-03-05T14:10:54.101Z,3.47
2019-03-05T14:13:23.703Z,4.73
2019-03-05T14:15:52.673Z,3.80
2019-03-05T14:18:21.911Z,4.67
2019-03-05T14:20:51.274Z,6.00
2019-03-05T14:23:20.508Z,4.33
2019-03-05T14:25:49.744Z,4.57
2019-03-05T14:28:19.739Z,3.83
2019-03-05T14:30:48.264Z,3.93
2019-03-05T14:33:17.492Z,4.60
2019-03-05T14:35:47.640Z,2.77
2019-03-05T14:38:16.962Z,5.30
2019-03-05T14:40:46.229Z,4.90
2019-03-05T14:43:15.480Z,6.53
2019-03-05T14:45:44.697Z,3.93
2019-03-05T14:48:13.966Z,4.03
2019-03-05T14:50:43.221Z,3.70
2019-03-05T14:53:12.507Z,4.43
2019-03-05T14:55:41.833Z,4.23
2019-03-05T14:58:11.037Z,4.33
2019-03-05T15:00:40.423Z,4.13
2019-03-05T15:03:09.639Z,4.77
2019-03-05T15:05:38.865Z,5.20
2019-03-05T15:08:08.119Z,6.17
2019-03-05T15:10:37.277Z,4.43
2019-03-05T15:13:15.329Z,5.90
2019-03-05T15:15:35.846Z,3.30
2019-03-05T15:18:05.123Z,4.67
2019-03-05T15:20:34.432Z,8.30
2019-03-05T15:23:03.764Z,5.03
2019-03-05T15:25:33.011Z,5.70
2019-03-05T15:28:02.339Z,6.20
2019-03-05T15:30:31.620Z,3.83
2019-03-05T15:33:00.876Z,5.30
2019-03-05T15:35:30.190Z,3.57
2019-03-05T15:37:59.391Z,3.23
2019-03-05T15:40:28.659Z,4.80
2019-03-05T15:42:57.995Z,5.00
2019-03-05T15:45:27.196Z,4.20
2019-03-05T15:47:56.426Z,3.93
2019-03-05T15:50:25.995Z,5.57
2019-03-05T15:52:55.115Z,7.37
2019-03-05T15:55:24.416Z,6.90
2019-03-05T15:57:53.700Z,10.17
2019-03-05T16:00:26.524Z,7.27
2019-03-05T16:02:55.734Z,5.33
2019-03-05T16:05:24.985Z,5.63
2019-03-05T16:07:54.254Z,5.30
2019-03-05T16:10:23.474Z,7.00
2019-03-05T16:12:52.787Z,5.40
2019-03-05T16:15:22.041Z,4.60
2019-03-05T16:17:51.291Z,7.03
2019-03-05T16:20:20.563Z,6.83
2019-03-05T16:22:51.213Z,6.97
2019-03-05T16:25:19.105Z,4.60
2019-03-05T16:27:48.385Z,8.30
2019-03-05T16:30:37.502Z,7.23
2019-03-05T16:33:38.510Z,3.40
2019-03-05T16:36:30.567Z,7.70
2019-03-05T16:39:27.289Z,3.80
2019-03-05T16:42:09.022Z,4.23
2019-03-05T16:44:55.821Z,4.53
2019-03-05T16:47:47.457Z,4.77
2019-03-05T16:50:45.142Z,3.33
2019-03-05T16:53:36.121Z,6.73
2019-03-05T16:56:22.987Z,6.40
2019-03-05T16:59:12.073Z,4.70
2019-03-05T17:02:02.307Z,4.80
2019-03-05T17:05:03.032Z,5.93
2019-03-05T17:07:43.397Z,5.57
2019-03-05T17:10:46.703Z,6.53
2019-03-05T17:13:15.943Z,7.30
2019-03-05T17:15:45.258Z,7.03
2019-03-05T17:18:14.498Z,6.07
2019-03-05T17:20:43.897Z,5.97
2019-03-05T17:23:13.148Z,6.03
2019-03-05T17:25:42.426Z,5.40
2019-03-05T17:28:11.644Z,6.30
2019-03-05T17:30:41.046Z,4.97
2019-03-05T17:33:10.367Z,8.43
2019-03-05T17:35:39.608Z,4.90
2019-03-05T17:38:08.855Z,6.03
2019-03-05T17:40:38.164Z,3.30
2019-03-05T17:43:07.493Z,6.23
2019-03-05T17:45:36.913Z,7.47
2019-03-05T17:48:06.228Z,7.93
2019-03-05T17:50:35.459Z,5.07
2019-03-05T17:53:04.882Z,6.50
2019-03-05T17:55:34.125Z,6.43
2019-03-05T17:58:03.363Z,5.77
2019-03-05T18:00:34.416Z,7.20
2019-03-05T18:03:03.731Z,7.50
2019-03-05T18:05:33.022Z,6.97
2019-03-05T18:08:02.270Z,9.23
2019-03-05T18:10:31.616Z,9.20
2019-03-05T18:13:00.897Z,9.63
2019-03-05T18:15:30.145Z,9.03
2019-03-05T18:17:59.410Z,8.63
2019-03-05T18:20:28.744Z,8.83
2019-03-05T18:22:58.746Z,6.10
2019-03-05T18:25:28.033Z,15.03
2019-03-05T18:27:57.352Z,9.17
2019-03-05T18:30:26.574Z,6.63
2019-03-05T18:32:55.835Z,9.90
2019-03-05T18:35:25.366Z,8.30
2019-03-05T18:37:54.666Z,10.07
2019-03-05T18:40:24.245Z,8.60
2019-03-05T18:42:53.628Z,8.20
2019-03-05T18:45:24.084Z,5.83
2019-03-05T18:47:53.437Z,7.47
2019-03-05T18:50:23.043Z,11.37
2019-03-05T18:52:52.285Z,7.43
2019-03-05T18:55:21.727Z,7.83
2019-03-05T18:57:50.999Z,7.73
2019-03-05T19:00:21.848Z,8.50
2019-03-05T19:02:52.781Z,7.87
2019-03-05T19:05:22.196Z,10.00
2019-03-05T19:07:51.468Z,13.43
2019-03-05T19:10:21.202Z,11.53
2019-03-05T19:12:50.477Z,9.60
2019-03-05T19:15:20.525Z,9.27
2019-03-05T19:17:49.756Z,10.93
2019-03-05T19:20:20.980Z,7.67
2019-03-05T19:22:50.359Z,10.07
2019-03-05T19:25:21.920Z,13.53
2019-03-05T19:27:51.220Z,9.60
2019-03-05T19:30:22.726Z,12.80
2019-03-05T19:32:51.968Z,11.17
2019-03-05T19:35:21.215Z,11.03
2019-03-05T19:37:50.490Z,14.87
2019-03-05T19:40:21.998Z,10.43
2019-03-05T19:42:51.228Z,10.20
2019-03-05T19:45:23.611Z,13.33
2019-03-05T19:47:52.845Z,10.07
2019-03-05T19:50:22.094Z,12.43
2019-03-05T19:52:51.351Z,11.53
2019-03-05T19:55:23.648Z,8.97
2019-03-05T19:57:52.902Z,9.33
2019-03-05T20:00:34.860Z,8.90
2019-03-05T20:03:04.120Z,15.80
2019-03-05T20:05:33.344Z,12.23
2019-03-05T20:08:02.596Z,13.20
2019-03-05T20:10:31.829Z,10.67
2019-03-05T20:13:01.030Z,12.03
2019-03-05T20:15:30.336Z,11.77
2019-03-05T20:17:59.560Z,11.13
2019-03-05T20:20:28.769Z,11.10
2019-03-05T20:22:58.061Z,12.30
2019-03-05T20:25:27.456Z,8.57
2019-03-05T20:27:56.805Z,9.60
2019-03-05T20:30:26.049Z,9.43
2019-03-05T20:32:55.322Z,10.23
2019-03-05T20:35:24.574Z,10.00
2019-03-05T20:37:53.860Z,10.73
2019-03-05T20:40:23.099Z,7.47
2019-03-05T20:42:52.414Z,10.83
2019-03-05T20:45:24.889Z,10.17
2019-03-05T20:47:54.235Z,10.17
2019-03-05T20:50:23.479Z,12.80
2019-03-05T20:52:52.724Z,11.40
2019-03-05T20:55:22.340Z,9.97
2019-03-05T20:57:51.636Z,8.83
2019-03-05T21:00:25.287Z,9.63
2019-03-05T21:02:56.220Z,9.00
2019-03-05T21:05:27.329Z,9.93
2019-03-05T21:07:56.636Z,10.67
2019-03-05T21:10:25.924Z,11.07
2019-03-05T21:12:55.254Z,7.83
2019-03-05T21:15:24.522Z,10.27
2019-03-05T21:17:54.020Z,10.13
2019-03-05T21:20:23.246Z,9.33
2019-03-05T21:22:52.530Z,11.33
2019-03-05T21:25:21.752Z,11.33
2019-03-05T21:27:50.972Z,8.83
2019-03-05T21:30:20.448Z,8.77
2019-03-05T21:32:49.693Z,8.17
2019-03-05T21:35:18.963Z,14.27
2019-03-05T21:37:48.178Z,12.63
2019-03-05T21:40:21.930Z,9.57
2019-03-05T21:42:51.272Z,10.37
2019-03-05T21:45:23.791Z,8.17
2019-03-05T21:47:53.046Z,9.57
2019-03-05T21:50:24.842Z,10.73
2019-03-05T21:52:54.207Z,10.67
2019-03-05T21:55:23.428Z,9.47
2019-03-05T21:57:52.674Z,11.00
2019-03-05T22:00:24.033Z,13.33
2019-03-05T22:02:53.428Z,11.77
2019-03-05T22:05:22.762Z,12.87
2019-03-05T22:07:51.980Z,10.30
2019-03-05T22:10:21.233Z,9.87
2019-03-05T22:12:50.487Z,10.37
2019-03-05T22:15:20.019Z,8.73
2019-03-05T22:17:49.631Z,9.77
2019-03-05T22:20:18.904Z,9.40
2019-03-05T22:22:48.193Z,9.10
2019-03-05T22:25:18.359Z,12.57
2019-03-05T22:27:47.618Z,11.50
2019-03-05T22:30:18.782Z,15.03
2019-03-05T22:32:47.990Z,15.40
2019-03-05T22:35:18.035Z,10.97
2019-03-05T22:37:47.234Z,9.63
2019-03-05T22:40:16.592Z,11.33
2019-03-05T22:42:45.843Z,10.57
2019-03-05T22:45:17.192Z,10.30
2019-03-05T22:47:46.571Z,9.57
2019-03-05T22:50:15.934Z,8.57
2019-03-05T22:52:45.179Z,10.00
2019-03-05T22:55:14.403Z,9.33
2019-03-05T22:57:43.750Z,12.70
2019-03-05T23:00:16.946Z,14.00
2019-03-05T23:02:46.172Z,11.20
2019-03-05T23:05:15.539Z,10.53
2019-03-05T23:07:44.768Z,13.17
2019-03-05T23:10:13.991Z,11.17
2019-03-05T23:12:43.261Z,10.30
2019-03-05T23:15:12.516Z,10.43
2019-03-05T23:17:41.773Z,11.23
2019-03-05T23:20:11.038Z,11.23
2019-03-05T23:22:40.283Z,14.83
2019-03-05T23:25:09.528Z,11.10
2019-03-05T23:27:38.754Z,9.37
2019-03-05T23:30:08.306Z,8.97
2019-03-05T23:32:37.501Z,11.13
2019-03-05T23:35:08.005Z,10.03
2019-03-05T23:37:37.234Z,10.70
2019-03-05T23:40:06.642Z,9.83
2019-03-05T23:42:35.870Z,8.47
2019-03-05T23:45:05.486Z,8.83
2019-03-05T23:47:34.718Z,10.03
2019-03-05T23:50:03.980Z,8.67
2019-03-05T23:52:33.219Z,9.67
2019-03-05T23:55:02.418Z,8.03
2019-03-05T23:57:31.646Z,7.90
